createdAt,value
2019-03-03T00:01:02.678Z,112.40
2019-03-03T00:03:34.847Z,116.20
2019-03-03T00:06:06.419Z,111.80
2019-03-03T00:08:38.303Z,119.20
2019-03-03T00:11:11.024Z,116.60
2019-03-03T00:13:42.607Z,115.20
2019-03-03T00:16:14.341Z,115.40
2019-03-03T00:18:46.094Z,114.60
2019-03-03T00:21:19.215Z,109.00
2019-03-03T00:23:50.821Z,111.80
2019-03-03T00:26:22.959Z,116.80
2019-03-03T00:28:56.084Z,116.20
2019-03-03T00:31:36.833Z,97.40
2019-03-03T00:34:09.604Z,116.60
2019-03-03T00:36:58.628Z,102.60
2019-03-03T00:40:07.445Z,110.40
2019-03-03T00:42:56.721Z,104.00
2019-03-03T00:45:39.274Z,115.00
2019-03-03T00:48:41.703Z,108.60
2019-03-03T00:51:38.643Z,111.80
2019-03-03T00:54:29.950Z,118.20
2019-03-03T00:57:13.366Z,112.00
2019-03-03T00:59:57.325Z,100.00
2019-03-03T01:02:49.324Z,110.40
2019-03-03T01:05:46.397Z,108.20
2019-03-03T01:08:45.939Z,113.80
2019-03-03T01:11:44.188Z,113.80
2019-03-03T01:14:35.732Z,109.80
2019-03-03T01:17:25.382Z,115.40
2019-03-03T01:20:08.723Z,114.60
2019-03-03T01:23:14.260Z,118.60
2019-03-03T01:25:46.314Z,119.80
2019-03-03T01:28:17.841Z,121.80
2019-03-03T01:30:49.359Z,118.00
2019-03-03T01:33:21.079Z,114.00
2019-03-03T01:35:52.658Z,123.00
2019-03-03T01:38:24.418Z,117.00
2019-03-03T01:40:56.115Z,126.00
2019-03-03T01:43:27.856Z,130.40
2019-03-03T01:45:59.791Z,117.00
2019-03-03T01:48:31.683Z,116.40
2019-03-03T01:51:03.351Z,132.40
2019-03-03T01:53:34.870Z,138.40
2019-03-03T01:56:07.035Z,127.00
2019-03-03T01:58:38.673Z,122.40
2019-03-03T02:01:10.425Z,125.00
2019-03-03T02:03:42.288Z,118.00
2019-03-03T02:06:13.842Z,110.60
2019-03-03T02:08:45.673Z,115.40
2019-03-03T02:11:19.406Z,116.00
2019-03-03T02:13:51.108Z,113.60
2019-03-03T02:16:23.227Z,115.60
2019-03-03T02:18:54.591Z,126.60
2019-03-03T02:21:26.359Z,114.60
2019-03-03T02:23:57.755Z,127.40
2019-03-03T02:26:29.645Z,119.80
2019-03-03T02:29:01.448Z,112.20
2019-03-03T02:31:33.219Z,113.20
2019-03-03T02:34:05.024Z,127.80
2019-03-03T02:36:36.857Z,121.00
2019-03-03T02:39:16.131Z,122.20
2019-03-03T02:41:48.123Z,118.20
2019-03-03T02:44:20.079Z,116.80
2019-03-03T02:46:51.930Z,120.00
2019-03-03T02:49:23.622Z,115.20
2019-03-03T02:51:55.326Z,103.80
2019-03-03T02:54:27.154Z,114.80
2019-03-03T02:57:00.482Z,107.20
2019-03-03T02:59:32.990Z,114.40
2019-03-03T03:02:09.335Z,116.20
2019-03-03T03:04:41.050Z,111.20
2019-03-03T03:07:17.612Z,110.20
2019-03-03T03:10:14.144Z,134.00
2019-03-03T03:12:55.011Z,127.60
2019-03-03T03:15:43.871Z,126.00
2019-03-03T03:18:35.662Z,119.40
2019-03-03T03:21:35.410Z,131.60
2019-03-03T03:24:14.684Z,145.40
2019-03-03T03:26:53.728Z,125.80
2019-03-03T03:29:50.730Z,115.00
2019-03-03T03:32:51.556Z,110.80
2019-03-03T03:35:40.120Z,143.00
2019-03-03T03:38:25.772Z,118.60
2019-03-03T03:41:17.412Z,120.80
2019-03-03T03:44:13.951Z,127.00
2019-03-03T03:47:00.197Z,114.80
2019-03-03T03:49:39.543Z,119.00
2019-03-03T03:52:26.408Z,111.20
2019-03-03T03:55:19.784Z,108.40
2019-03-03T03:58:04.389Z,99.20
2019-03-03T04:00:53.590Z,113.40
2019-03-03T04:03:41.383Z,113.80
2019-03-03T04:06:20.796Z,112.20
2019-03-03T04:09:18.653Z,103.80
2019-03-03T04:12:11.867Z,110.60
2019-03-03T04:14:52.810Z,109.00
2019-03-03T04:17:48.900Z,116.80
2019-03-03T04:20:42.916Z,107.20
2019-03-03T04:23:31.724Z,104.80
2019-03-03T04:26:35.111Z,106.80
2019-03-03T04:29:26.740Z,107.40
2019-03-03T04:32:04.437Z,106.80
2019-03-03T04:34:56.058Z,108.20
2019-03-03T04:37:42.981Z,109.60
2019-03-03T04:40:22.687Z,111.00
2019-03-03T04:43:16.076Z,101.60
2019-03-03T04:45:59.249Z,107.00
2019-03-03T04:48:36.548Z,101.00
2019-03-03T04:51:29.735Z,102.40
2019-03-03T04:54:20.490Z,98.00
2019-03-03T04:57:09.098Z,94.40
2019-03-03T05:00:02.414Z,97.20
2019-03-03T05:02:44.017Z,103.80
2019-03-03T05:05:34.529Z,100.40
2019-03-03T05:08:28.482Z,97.20
2019-03-03T05:11:25.261Z,101.00
2019-03-03T05:14:11.833Z,94.00
2019-03-03T05:17:11.175Z,98.20
2019-03-03T05:19:47.731Z,98.60
2019-03-03T05:22:19.410Z,85.00
2019-03-03T05:24:51.203Z,100.60
2019-03-03T05:27:23.220Z,94.80
2019-03-03T05:29:54.875Z,102.00
2019-03-03T05:32:26.428Z,104.60
2019-03-03T05:34:58.062Z,106.20
2019-03-03T05:37:29.761Z,100.20
2019-03-03T05:40:01.630Z,105.60
2019-03-03T05:42:34.398Z,103.00
2019-03-03T05:45:07.458Z,98.00
2019-03-03T05:47:38.880Z,108.40
2019-03-03T05:50:10.249Z,108.20
2019-03-03T05:52:41.956Z,107.80
2019-03-03T05:55:13.296Z,96.60
2019-03-03T05:57:45.452Z,100.60
2019-03-03T06:00:17.073Z,98.00
2019-03-03T06:02:48.796Z,91.40
2019-03-03T06:05:20.551Z,99.20
2019-03-03T06:07:52.337Z,89.00
2019-03-03T06:10:28.163Z,87.60
2019-03-03T06:12:59.885Z,80.80
2019-03-03T06:15:32.692Z,78.60
2019-03-03T06:18:04.422Z,84.00
2019-03-03T06:20:36.207Z,76.20
2019-03-03T06:23:07.848Z,68.00
2019-03-03T06:25:39.562Z,76.80
2019-03-03T06:28:11.129Z,75.00
2019-03-03T06:30:42.514Z,81.80
2019-03-03T06:33:14.679Z,81.60
2019-03-03T06:35:46.255Z,84.00
2019-03-03T06:38:18.107Z,81.20
2019-03-03T06:40:49.744Z,74.60
2019-03-03T06:43:21.219Z,80.00
2019-03-03T06:45:52.823Z,81.20
2019-03-03T06:48:24.505Z,99.20
2019-03-03T06:50:56.424Z,75.80
2019-03-03T06:53:28.048Z,74.00
2019-03-03T06:55:59.524Z,70.80
2019-03-03T06:58:31.735Z,75.40
2019-03-03T07:01:03.339Z,74.20
2019-03-03T07:03:35.021Z,88.00
2019-03-03T07:06:06.593Z,69.40
2019-03-03T07:08:38.176Z,68.00
2019-03-03T07:11:10.172Z,91.20
2019-03-03T07:13:41.955Z,80.60
2019-03-03T07:16:13.846Z,68.80
2019-03-03T07:18:45.639Z,72.60
2019-03-03T07:21:19.116Z,67.20
2019-03-03T07:23:50.966Z,65.60
2019-03-03T07:26:22.586Z,60.00
2019-03-03T07:28:54.846Z,60.80
2019-03-03T07:31:26.629Z,63.00
2019-03-03T07:34:01.157Z,58.20
2019-03-03T07:36:32.919Z,64.40
2019-03-03T07:39:06.429Z,50.80
2019-03-03T07:41:39.678Z,56.20
2019-03-03T07:44:11.293Z,62.20
2019-03-03T07:46:43.147Z,60.20
2019-03-03T07:49:14.607Z,61.40
2019-03-03T07:51:46.705Z,56.80
2019-03-03T07:54:19.422Z,50.60
2019-03-03T07:56:50.980Z,50.80
2019-03-03T07:59:22.495Z,47.00
2019-03-03T08:01:54.236Z,54.40
2019-03-03T08:04:25.933Z,56.40
2019-03-03T08:06:58.209Z,52.60
2019-03-03T08:09:29.624Z,56.40
2019-03-03T08:12:01.352Z,44.80
2019-03-03T08:14:33.232Z,50.20
2019-03-03T08:17:04.808Z,37.40
2019-03-03T08:19:36.159Z,40.40
2019-03-03T08:22:07.899Z,44.20
2019-03-03T08:24:39.518Z,42.60
2019-03-03T08:27:11.375Z,46.00
2019-03-03T08:29:42.813Z,45.80
2019-03-03T08:32:14.259Z,44.20
2019-03-03T08:34:45.984Z,37.80
2019-03-03T08:37:17.636Z,44.40
2019-03-03T08:39:49.188Z,41.00
2019-03-03T08:42:39.949Z,42.40
2019-03-03T08:45:28.898Z,31.60
2019-03-03T08:48:05.470Z,34.40
2019-03-03T08:50:51.935Z,41.20
2019-03-03T08:53:41.442Z,32.80
2019-03-03T08:56:30.519Z,41.60
2019-03-03T08:59:12.183Z,33.40
2019-03-03T09:01:49.650Z,42.00
2019-03-03T09:04:41.927Z,40.80
2019-03-03T09:07:28.606Z,37.80
2019-03-03T09:10:25.051Z,41.80
2019-03-03T09:13:18.529Z,43.00
2019-03-03T09:16:12.250Z,20.80
2019-03-03T09:19:01.473Z,30.20
2019-03-03T09:21:57.608Z,36.20
2019-03-03T09:24:43.412Z,36.80
2019-03-03T09:27:33.481Z,41.20
2019-03-03T09:30:36.263Z,39.00
2019-03-03T09:33:25.283Z,30.40
2019-03-03T09:36:08.262Z,45.80
2019-03-03T09:39:07.343Z,36.60
2019-03-03T09:42:08.079Z,36.60
2019-03-03T09:44:49.119Z,32.00
2019-03-03T09:47:57.887Z,34.20
2019-03-03T09:50:47.340Z,65.80
2019-03-03T09:53:37.926Z,39.20
2019-03-03T09:56:31.834Z,39.80
2019-03-03T09:59:28.869Z,35.40
2019-03-03T10:02:18.491Z,30.80
2019-03-03T10:04:58.091Z,33.20
2019-03-03T10:08:00.774Z,29.40
2019-03-03T10:10:45.522Z,29.80
2019-03-03T10:13:36.038Z,30.80
2019-03-03T10:16:18.691Z,33.60
2019-03-03T10:19:09.335Z,38.20
2019-03-03T10:22:05.271Z,35.40
2019-03-03T10:24:59.455Z,32.20
2019-03-03T10:27:48.230Z,37.80
2019-03-03T10:30:31.816Z,29.80
2019-03-03T10:33:31.752Z,30.40
2019-03-03T10:36:16.582Z,34.40
2019-03-03T10:38:54.793Z,38.80
2019-03-03T10:41:45.326Z,41.60
2019-03-03T10:44:54.364Z,43.20
2019-03-03T10:47:40.891Z,44.00
2019-03-03T10:50:19.648Z,30.00
2019-03-03T10:53:02.791Z,39.40
2019-03-03T10:55:39.867Z,36.60
2019-03-03T10:58:39.604Z,44.20
2019-03-03T11:01:30.508Z,36.00
2019-03-03T11:04:12.060Z,32.60
2019-03-03T11:07:08.426Z,38.80
2019-03-03T11:09:53.346Z,46.00
2019-03-03T11:12:47.577Z,38.40
2019-03-03T11:15:40.945Z,55.20
2019-03-03T11:18:37.381Z,34.40
2019-03-03T11:21:31.872Z,35.40
2019-03-03T11:24:13.664Z,31.00
2019-03-03T11:27:10.606Z,35.60
2019-03-03T11:30:07.970Z,32.40
2019-03-03T11:36:13.695Z,30.20
2019-03-03T11:39:03.319Z,26.00
2019-03-03T11:41:55.455Z,31.40
2019-03-03T11:45:05.314Z,36.40
2019-03-03T11:48:06.553Z,30.80
2019-03-03T11:50:55.789Z,27.00
2019-03-03T11:53:54.925Z,35.00
2019-03-03T11:56:45.920Z,31.40
2019-03-03T11:59:35.284Z,37.00
2019-03-03T12:02:32.744Z,31.20
2019-03-03T12:05:35.525Z,35.60
2019-03-03T12:08:41.657Z,41.00
2019-03-03T12:11:32.733Z,57.40
2019-03-03T12:14:35.804Z,54.20
2019-03-03T12:17:35.921Z,61.00
2019-03-03T12:20:36.050Z,68.40
2019-03-03T12:23:29.631Z,64.40
2019-03-03T12:26:20.303Z,59.20
2019-03-03T12:29:09.048Z,68.20
2019-03-03T12:32:08.279Z,59.60
2019-03-03T12:35:05.324Z,65.60
2019-03-03T12:38:12.192Z,60.20
2019-03-03T12:41:03.218Z,76.00
2019-03-03T12:43:53.681Z,61.20
2019-03-03T12:46:44.309Z,72.60
2019-03-03T12:49:23.696Z,75.80
2019-03-03T12:52:26.016Z,76.80
2019-03-03T12:55:17.090Z,80.00
2019-03-03T12:58:00.859Z,79.60
2019-03-03T13:00:53.506Z,74.40
2019-03-03T13:03:48.549Z,74.00
2019-03-03T13:06:35.412Z,76.80
2019-03-03T13:09:25.103Z,77.40
2019-03-03T13:12:18.870Z,69.00
2019-03-03T13:15:15.023Z,84.00
2019-03-03T13:17:53.053Z,75.80
2019-03-03T13:20:40.488Z,85.20
2019-03-03T13:23:20.859Z,82.40
2019-03-03T13:26:04.804Z,76.20
2019-03-03T13:28:53.905Z,91.40
2019-03-03T13:31:42.720Z,81.20
2019-03-03T13:34:31.410Z,85.60
2019-03-03T13:37:13.030Z,77.40
2019-03-03T13:40:01.854Z,86.40
2019-03-03T13:42:50.921Z,90.00
2019-03-03T13:45:23.298Z,88.40
2019-03-03T13:47:55.102Z,87.20
2019-03-03T13:50:27.336Z,80.80
2019-03-03T13:52:58.778Z,82.60
2019-03-03T13:55:31.451Z,94.40
2019-03-03T13:58:03.218Z,90.00
2019-03-03T14:00:35.281Z,91.60
2019-03-03T14:03:10.287Z,96.20
2019-03-03T14:05:41.822Z,93.80
2019-03-03T14:08:13.598Z,92.80
2019-03-03T14:10:45.428Z,97.60
2019-03-03T14:13:18.199Z,98.80
2019-03-03T14:15:50.217Z,96.40
2019-03-03T14:18:21.806Z,89.20
2019-03-03T14:20:53.694Z,93.80
2019-03-03T14:23:25.086Z,109.00
2019-03-03T14:25:56.821Z,108.40
2019-03-03T14:28:28.332Z,109.40
2019-03-03T14:30:59.889Z,120.40
2019-03-03T14:33:32.097Z,114.40
2019-03-03T14:36:03.762Z,96.20
2019-03-03T14:38:35.261Z,100.80
2019-03-03T14:41:07.195Z,96.40
2019-03-03T14:43:39.241Z,95.60
2019-03-03T14:46:11.367Z,94.80
2019-03-03T14:48:43.080Z,86.60
2019-03-03T14:51:14.762Z,87.40
2019-03-03T14:53:46.343Z,90.40
2019-03-03T14:56:18.261Z,91.40
2019-03-03T14:58:49.975Z,88.40
2019-03-03T15:01:21.664Z,86.40
2019-03-03T15:03:53.757Z,90.20
2019-03-03T15:06:25.577Z,87.40
2019-03-03T15:08:57.128Z,92.60
2019-03-03T15:11:28.781Z,94.80
2019-03-03T15:14:00.363Z,90.60
2019-03-03T15:16:31.810Z,99.80
2019-03-03T15:19:03.874Z,100.40
2019-03-03T15:21:35.696Z,98.40
2019-03-03T15:24:07.299Z,102.60
2019-03-03T15:26:39.326Z,109.20
2019-03-03T15:29:11.002Z,103.40
2019-03-03T15:31:42.779Z,104.00
2019-03-03T15:34:14.305Z,106.00
2019-03-03T15:36:45.945Z,106.00
2019-03-03T15:39:17.616Z,103.60
2019-03-03T15:41:49.079Z,106.60
2019-03-03T15:44:20.760Z,108.60
2019-03-03T15:46:52.653Z,107.20
2019-03-03T15:49:24.844Z,104.20
2019-03-03T15:51:56.633Z,109.80
2019-03-03T15:54:28.477Z,111.80
2019-03-03T15:57:00.378Z,114.40
2019-03-03T15:59:32.340Z,102.60
2019-03-03T16:02:04.484Z,107.40
2019-03-03T16:04:38.337Z,112.80
2019-03-03T16:07:09.884Z,100.00
2019-03-03T16:09:41.779Z,100.60
2019-03-03T16:12:13.504Z,104.40
2019-03-03T16:14:45.264Z,102.20
2019-03-03T16:17:18.645Z,103.80
2019-03-03T16:19:51.196Z,123.20
2019-03-03T16:22:23.123Z,106.60
2019-03-03T16:24:54.924Z,130.00
2019-03-03T16:27:26.372Z,105.20
2019-03-03T16:29:58.247Z,108.80
2019-03-03T16:32:29.704Z,107.60
2019-03-03T16:35:01.271Z,122.20
2019-03-03T16:37:32.703Z,113.80
2019-03-03T16:40:04.471Z,104.40
2019-03-03T16:42:54.502Z,105.40
2019-03-03T16:45:26.385Z,105.00
2019-03-03T16:47:58.353Z,125.80
2019-03-03T16:50:31.675Z,109.00
2019-03-03T16:53:03.787Z,101.20
2019-03-03T16:55:35.787Z,105.20
2019-03-03T16:58:07.646Z,111.20
2019-03-03T17:00:39.413Z,112.20
2019-03-03T17:03:11.107Z,107.80
2019-03-03T17:05:42.830Z,108.40
2019-03-03T17:08:14.594Z,113.80
2019-03-03T17:10:46.400Z,106.40
2019-03-03T17:13:18.099Z,103.40
2019-03-03T17:15:49.545Z,103.80
2019-03-03T17:18:21.337Z,102.80
2019-03-03T17:20:52.872Z,106.20
2019-03-03T17:23:24.549Z,102.80
2019-03-03T17:25:56.243Z,101.40
2019-03-03T17:28:27.948Z,107.80
2019-03-03T17:31:00.729Z,105.40
2019-03-03T17:33:32.410Z,108.20
2019-03-03T17:36:04.083Z,103.40
2019-03-03T17:38:35.869Z,98.20
2019-03-03T17:41:09.213Z,102.00
2019-03-03T17:43:40.608Z,103.00
2019-03-03T17:46:17.850Z,103.80
2019-03-03T17:48:49.524Z,108.80
2019-03-03T17:51:21.034Z,102.40
2019-03-03T17:53:52.603Z,102.00
2019-03-03T17:56:24.047Z,101.20
2019-03-03T17:58:56.637Z,96.80
2019-03-03T18:01:28.204Z,104.60
2019-03-03T18:03:59.854Z,99.40
2019-03-03T18:06:38.602Z,94.60
2019-03-03T18:09:05.916Z,100.20
2019-03-03T18:11:38.833Z,96.60
2019-03-03T18:14:10.263Z,101.20
2019-03-03T18:16:41.864Z,98.80
2019-03-03T18:19:13.749Z,99.80
2019-03-03T18:21:45.419Z,98.80
2019-03-03T18:24:16.961Z,99.20
2019-03-03T18:26:48.667Z,95.40
2019-03-03T18:29:20.143Z,94.80
2019-03-03T18:31:54.436Z,95.60
2019-03-03T18:34:26.373Z,103.40
2019-03-03T18:36:57.891Z,100.20
2019-03-03T18:39:30.160Z,99.40
2019-03-03T18:42:01.649Z,98.40
2019-03-03T18:44:34.727Z,99.60
2019-03-03T18:47:06.194Z,100.60
2019-03-03T18:49:38.143Z,99.80
2019-03-03T18:52:10.342Z,103.00
2019-03-03T18:54:42.040Z,96.80
2019-03-03T18:57:13.752Z,102.60
2019-03-03T18:59:45.466Z,106.60
2019-03-03T19:02:17.584Z,99.80
2019-03-03T19:04:49.836Z,99.60
2019-03-03T19:07:21.434Z,91.80
2019-03-03T19:09:53.265Z,97.40
2019-03-03T19:12:24.729Z,99.00
2019-03-03T19:14:56.658Z,98.20
2019-03-03T19:17:28.299Z,99.20
2019-03-03T19:20:00.229Z,104.40
2019-03-03T19:22:31.939Z,103.20
2019-03-03T19:25:03.628Z,98.60
2019-03-03T19:27:35.350Z,99.20
2019-03-03T19:30:08.937Z,102.40
2019-03-03T19:32:40.860Z,92.80
2019-03-03T19:35:12.992Z,97.80
2019-03-03T19:37:44.793Z,103.60
2019-03-03T19:40:17.044Z,99.20
2019-03-03T19:42:48.900Z,98.60
2019-03-03T19:45:26.008Z,98.80
2019-03-03T19:47:58.017Z,102.00
2019-03-03T19:50:29.682Z,99.80
2019-03-03T19:53:01.477Z,98.80
2019-03-03T19:55:33.394Z,99.00
2019-03-03T19:58:05.312Z,98.60
2019-03-03T20:00:39.035Z,99.40
2019-03-03T20:03:10.809Z,109.20
2019-03-03T20:05:42.371Z,100.60
2019-03-03T20:08:14.372Z,100.00
2019-03-03T20:10:46.809Z,98.40
2019-03-03T20:13:18.563Z,102.60
2019-03-03T20:15:50.349Z,102.20
2019-03-03T20:18:21.959Z,83.00
2019-03-03T20:20:53.391Z,104.20
2019-03-03T20:23:25.209Z,105.80
2019-03-03T20:25:56.748Z,104.80
2019-03-03T20:28:28.546Z,109.60
2019-03-03T20:31:01.802Z,105.80
2019-03-03T20:33:33.692Z,104.40
2019-03-03T20:36:05.090Z,101.20
2019-03-03T20:38:36.794Z,106.80
2019-03-03T20:41:08.293Z,101.80
2019-03-03T20:43:39.813Z,112.80
2019-03-03T20:46:11.507Z,101.80
2019-03-03T20:48:43.391Z,109.40
2019-03-03T20:51:14.855Z,100.40
2019-03-03T20:53:46.475Z,107.80
2019-03-03T20:56:18.297Z,104.00
2019-03-03T20:58:49.777Z,86.80
2019-03-03T21:01:22.336Z,103.80
2019-03-03T21:03:54.049Z,103.20
2019-03-03T21:06:25.524Z,102.40
2019-03-03T21:08:57.469Z,106.00
2019-03-03T21:11:29.110Z,99.60
2019-03-03T21:14:01.248Z,98.80
2019-03-03T21:16:32.933Z,100.00
2019-03-03T21:19:04.777Z,93.20
2019-03-03T21:21:36.399Z,102.20
2019-03-03T21:24:08.425Z,104.20
2019-03-03T21:26:40.037Z,99.60
2019-03-03T21:29:11.967Z,105.80
2019-03-03T21:31:43.703Z,104.00
2019-03-03T21:34:15.560Z,96.80
2019-03-03T21:36:47.055Z,99.20
2019-03-03T21:39:18.814Z,101.60
2019-03-03T21:41:50.810Z,102.20
2019-03-03T21:44:22.317Z,100.20
2019-03-03T21:46:54.257Z,94.00
2019-03-03T21:49:25.853Z,103.80
2019-03-03T21:51:57.644Z,93.60
2019-03-03T21:54:29.508Z,102.00
2019-03-03T21:57:01.352Z,103.20
2019-03-03T21:59:32.813Z,101.60
2019-03-03T22:02:04.888Z,101.40
2019-03-03T22:04:36.489Z,103.00
2019-03-03T22:07:08.381Z,113.60
2019-03-03T22:09:40.148Z,106.60
2019-03-03T22:12:11.654Z,106.00
2019-03-03T22:14:43.592Z,109.20
2019-03-03T22:17:15.391Z,100.80
2019-03-03T22:19:47.015Z,107.20
2019-03-03T22:22:18.426Z,106.80
2019-03-03T22:24:50.652Z,109.60
2019-03-03T22:27:22.335Z,98.20
2019-03-03T22:29:53.842Z,105.40
2019-03-03T22:32:25.503Z,102.40
2019-03-03T22:34:57.200Z,101.00
2019-03-03T22:37:28.878Z,106.80
2019-03-03T22:40:00.317Z,103.40
2019-03-03T22:42:31.834Z,93.40
2019-03-03T22:45:03.538Z,100.00
2019-03-03T22:47:35.378Z,110.40
2019-03-03T22:50:06.970Z,109.60
2019-03-03T22:52:38.910Z,103.40
2019-03-03T22:55:11.227Z,103.80
2019-03-03T22:57:42.867Z,103.40
2019-03-03T23:00:50.829Z,107.40
2019-03-03T23:03:43.185Z,101.80
2019-03-03T23:06:26.148Z,100.60
2019-03-03T23:09:46.355Z,102.80
2019-03-03T23:12:51.864Z,105.80
2019-03-03T23:16:02.833Z,102.00
2019-03-03T23:19:19.503Z,107.80
2019-03-03T23:22:31.218Z,98.80
2019-03-03T23:25:57.392Z,108.20
2019-03-03T23:28:31.328Z,108.20
2019-03-03T23:31:03.004Z,107.80
2019-03-03T23:33:34.505Z,112.80
2019-03-03T23:36:06.343Z,111.80
2019-03-03T23:38:37.808Z,110.00
2019-03-03T23:41:09.429Z,105.20
2019-03-03T23:43:41.023Z,108.40
2019-03-03T23:46:12.681Z,113.20
2019-03-03T23:48:44.718Z,111.20
2019-03-03T23:51:17.173Z,114.00
2019-03-03T23:53:49.099Z,110.20
2019-03-03T23:56:20.870Z,108.60
2019-03-03T23:58:52.595Z,103.60
